Time;durP1;ratioP1;P1;durP2;ratioP2;P2;SDS_P1;SDS_P2;PMS_P1;PMS_P2;Temp;Humidity;BMP_temperature;BMP_pressure;BME280_temperature;BME280_humidity;BME280_pressure;Samples;Min_cycle;Max_cycle;Signal;HPM_P1;HPM_P2
2023/05/27 00:00:46;;;;;;;11.48;3.35;;;13.30;89.70;;;;;;5078243;28;20243;-71
2023/05/27 00:03:35;;;;;;;12.13;2.97;;;13.20;90.50;;;;;;5080068;28;20234;-70
2023/05/27 00:06:24;;;;;;;11.48;3.13;;;13.20;90.90;;;;;;5081921;28;20784;-70
2023/05/27 00:09:13;;;;;;;12.25;3.20;;;13.60;90.80;;;;;;5083017;28;20227;-70
2023/05/27 00:12:02;;;;;;;15.35;3.42;;;13.50;90.70;;;;;;5086643;27;20695;-69
2023/05/27 00:14:57;;;;;;;10.60;3.17;;;13.50;90.90;;;;;;5082084;28;20656;-69
2023/05/27 00:17:47;;;;;;;9.25;3.05;;;13.20;90.80;;;;;;5081236;28;20302;-69
2023/05/27 00:20:36;;;;;;;12.32;3.20;;;13.10;90.90;;;;;;5077914;28;20227;-69
2023/05/27 00:23:25;;;;;;;15.57;3.75;;;13.20;91.80;;;;;;5078736;28;20641;-70
2023/05/27 00:26:14;;;;;;;9.95;3.30;;;13.10;91.10;;;;;;5084505;28;20929;-72
2023/05/27 00:29:06;;;;;;;8.75;3.30;;;12.90;91.50;;;;;;5076789;28;20231;-70
2023/05/27 00:31:57;;;;;;;10.10;3.15;;;13.00;91.80;;;;;;5084572;28;20272;-71
2023/05/27 00:34:46;;;;;;;12.98;4.18;;;13.10;91.80;;;;;;5085914;28;20235;-71
2023/05/27 00:37:34;;;;;;;13.90;3.80;;;13.10;92.20;;;;;;5082859;28;20230;-71
2023/05/27 00:40:27;;;;;;;9.30;2.97;;;13.20;92.60;;;;;;5077668;28;20227;-71
2023/05/27 00:43:16;;;;;;;10.25;3.67;;;13.00;92.30;;;;;;5078621;28;20301;-70
2023/05/27 00:46:05;;;;;;;10.05;3.47;;;13.00;92.30;;;;;;5090696;28;20216;-68
2023/05/27 00:48:55;;;;;;;9.93;3.45;;;12.90;92.20;;;;;;5084238;28;20296;-68
2023/05/27 00:51:45;;;;;;;13.68;3.85;;;13.00;92.60;;;;;;5077193;28;20230;-70
2023/05/27 00:54:34;;;;;;;11.95;3.67;;;12.90;92.50;;;;;;5083003;28;20239;-71
2023/05/27 00:57:23;;;;;;;13.00;4.07;;;13.00;92.40;;;;;;5082441;28;20843;-71
2023/05/27 01:00:13;;;;;;;13.45;3.67;;;13.00;92.80;;;;;;5083391;28;20253;-71
2023/05/27 01:03:02;;;;;;;11.82;3.00;;;12.70;93.50;;;;;;5083451;28;20280;-70
2023/05/27 01:06:04;;;;;;;15.07;3.97;;;12.80;93.90;;;;;;5068558;28;20223;-70
2023/05/27 01:09:01;;;;;;;13.43;3.28;;;12.60;93.10;;;;;;5077242;28;20312;-69
2023/05/27 01:12:11;;;;;;;12.50;3.50;;;12.70;94.00;;;;;;5080480;28;20441;-71
2023/05/27 01:15:03;;;;;;;10.38;3.83;;;12.70;93.60;;;;;;5080641;28;20290;-68
2023/05/27 01:17:56;;;;;;;10.93;3.47;;;12.80;94.40;;;;;;5081163;28;20627;-70
2023/05/27 01:20:48;;;;;;;13.52;3.63;;;12.80;94.10;;;;;;5079601;28;20280;-71
2023/05/27 01:23:39;;;;;;;11.00;3.70;;;12.60;93.80;;;;;;5080428;28;20223;-69
2023/05/27 01:26:28;;;;;;;11.82;3.42;;;12.40;94.30;;;;;;5080807;28;20623;-71
2023/05/27 01:29:17;;;;;;;15.48;3.83;;;12.50;94.30;;;;;;5076815;28;20224;-69
2023/05/27 01:32:11;;;;;;;13.85;3.60;;;12.30;94.50;;;;;;5079610;28;20621;-70
2023/05/27 01:35:05;;;;;;;16.02;3.75;;;12.20;94.80;;;;;;5078605;28;20219;-69
2023/05/27 01:37:56;;;;;;;12.15;3.20;;;12.20;94.80;;;;;;5080630;28;20223;-70
2023/05/27 01:40:50;;;;;;;13.73;3.40;;;12.00;95.30;;;;;;5071138;28;20715;-70
2023/05/27 01:43:40;;;;;;;10.05;2.80;;;12.10;95.80;;;;;;5077965;28;20216;-68
2023/05/27 01:46:29;;;;;;;12.63;3.22;;;12.20;95.70;;;;;;5081885;28;20601;-68
2023/05/27 01:49:18;;;;;;;11.07;3.05;;;12.30;95.90;;;;;;5074901;28;20313;-70
2023/05/27 01:52:08;;;;;;;12.60;3.65;;;12.50;95.30;;;;;;5079462;28;20234;-68
2023/05/27 01:54:57;;;;;;;15.60;3.30;;;12.30;95.40;;;;;;5080318;28;20215;-68
2023/05/27 01:57:47;;;;;;;11.27;3.13;;;12.20;95.60;;;;;;5081823;28;20671;-71
2023/05/27 02:00:37;;;;;;;10.18;3.03;;;12.10;95.90;;;;;;5081301;28;20216;-69
2023/05/27 02:03:27;;;;;;;13.77;3.58;;;12.20;96.20;;;;;;5081906;28;21013;-69
2023/05/27 02:06:16;;;;;;;11.45;3.30;;;11.90;96.50;;;;;;5082926;28;20215;-70
2023/05/27 02:09:06;;;;;;;10.82;3.17;;;11.70;96.70;;;;;;5084847;28;20235;-71
2023/05/27 02:11:55;;;;;;;17.08;3.92;;;11.80;96.90;;;;;;5081179;28;20315;-71
2023/05/27 02:14:45;;;;;;;13.30;4.25;;;11.60;97.30;;;;;;5079112;28;20232;-68
2023/05/27 02:17:34;;;;;;;13.05;3.47;;;11.80;97.30;;;;;;5086069;28;20239;-70
2023/05/27 02:20:23;;;;;;;12.93;3.53;;;11.70;97.80;;;;;;5083166;28;20713;-69
2023/05/27 02:23:12;;;;;;;14.05;3.85;;;11.70;97.70;;;;;;5085287;28;21722;-70
2023/05/27 02:26:02;;;;;;;10.63;3.50;;;11.90;98.00;;;;;;5086223;28;20696;-70
2023/05/27 02:28:51;;;;;;;12.98;3.50;;;11.70;97.90;;;;;;5080130;28;20287;-70
2023/05/27 02:31:41;;;;;;;11.25;3.58;;;11.80;98.20;;;;;;5083856;28;20219;-70
2023/05/27 02:34:30;;;;;;;9.20;2.97;;;12.10;98.20;;;;;;5083116;28;20313;-70
2023/05/27 02:37:19;;;;;;;9.57;3.25;;;11.90;98.10;;;;;;5083028;28;20216;-70
2023/05/27 02:40:10;;;;;;;11.27;3.58;;;11.80;98.20;;;;;;5083192;28;20219;-70
2023/05/27 02:42:59;;;;;;;15.30;3.80;;;11.70;98.50;;;;;;5111483;27;20227;-69
2023/05/27 02:45:48;;;;;;;11.63;3.15;;;11.70;98.60;;;;;;5081208;28;20226;-69
2023/05/27 02:48:40;;;;;;;11.32;3.70;;;11.70;98.60;;;;;;5081161;28;20310;-71
2023/05/27 02:51:30;;;;;;;9.38;3.33;;;12.00;99.20;;;;;;5085784;28;20223;-69
2023/05/27 02:54:19;;;;;;;13.25;3.65;;;12.10;99.10;;;;;;5112884;27;20220;-70
2023/05/27 02:57:08;;;;;;;11.00;3.35;;;11.90;98.70;;;;;;5063910;28;20649;-70
2023/05/27 02:59:57;;;;;;;12.02;3.50;;;11.90;98.80;;;;;;5071858;28;20615;-69
2023/05/27 03:02:47;;;;;;;9.70;3.22;;;11.80;99.30;;;;;;5085394;28;20235;-69
2023/05/27 03:05:39;;;;;;;10.18;3.33;;;12.00;99.50;;;;;;5082144;28;20257;-69
2023/05/27 03:08:29;;;;;;;10.75;3.40;;;12.10;99.30;;;;;;5082992;28;20699;-68
2023/05/27 03:11:18;;;;;;;12.60;3.20;;;11.90;99.90;;;;;;5080046;28;20223;-68
2023/05/27 03:14:07;;;;;;;10.57;3.30;;;11.80;99.90;;;;;;5090945;28;20226;-68
2023/05/27 03:16:56;;;;;;;10.50;3.45;;;12.00;99.90;;;;;;5083384;28;20946;-68
2023/05/27 03:19:46;;;;;;;14.88;4.07;;;11.70;99.90;;;;;;5090726;28;20250;-69
2023/05/27 03:22:37;;;;;;;15.52;4.05;;;11.80;99.90;;;;;;5079378;28;20545;-71
2023/05/27 03:25:25;;;;;;;11.38;3.78;;;11.70;99.90;;;;;;5078229;28;20240;-69
2023/05/27 03:28:16;;;;;;;12.77;3.58;;;12.00;99.90;;;;;;5081065;28;20776;-69
2023/05/27 03:31:05;;;;;;;8.98;3.00;;;12.20;99.90;;;;;;5077868;28;20226;-69
2023/05/27 03:34:16;;;;;;;14.73;3.78;;;12.20;99.90;;;;;;5079362;28;20227;-70
2023/05/27 03:37:05;;;;;;;10.88;3.75;;;12.10;99.90;;;;;;5110835;27;20707;-69
2023/05/27 03:40:16;;;;;;;14.30;3.58;;;12.00;99.90;;;;;;5080659;28;20212;-69
2023/05/27 03:43:06;;;;;;;11.93;4.13;;;11.90;99.90;;;;;;5070893;28;20220;-70
2023/05/27 03:45:55;;;;;;;9.63;3.22;;;11.90;99.90;;;;;;5075195;28;20994;-70
2023/05/27 03:48:44;;;;;;;11.90;3.42;;;11.90;99.90;;;;;;5105479;27;20215;-69
2023/05/27 03:51:35;;;;;;;10.10;3.47;;;11.80;99.90;;;;;;5085029;28;20223;-71
2023/05/27 03:54:24;;;;;;;11.93;3.22;;;12.20;99.90;;;;;;5082115;28;20234;-69
2023/05/27 03:57:15;;;;;;;7.97;3.50;;;12.20;99.90;;;;;;5078100;28;20219;-67
2023/05/27 04:00:07;;;;;;;12.00;3.40;;;11.80;99.90;;;;;;5081004;28;20328;-69
2023/05/27 04:03:09;;;;;;;14.15;3.88;;;12.00;99.90;;;;;;5080657;28;20267;-72
2023/05/27 04:05:58;;;;;;;14.95;3.60;;;12.20;99.90;;;;;;5072343;28;20211;-70
2023/05/27 04:08:48;;;;;;;14.40;3.30;;;12.10;99.90;;;;;;5080483;28;20706;-69
2023/05/27 04:11:36;;;;;;;13.77;3.50;;;12.10;99.90;;;;;;5080243;28;20227;-69
2023/05/27 04:14:27;;;;;;;8.98;3.10;;;12.10;99.90;;;;;;5082525;28;20231;-67
2023/05/27 04:17:17;;;;;;;12.70;3.72;;;12.00;99.90;;;;;;5075149;28;20306;-69
2023/05/27 04:20:13;;;;;;;14.02;3.78;;;12.10;99.90;;;;;;5078247;28;20231;-68
2023/05/27 04:23:06;;;;;;;12.60;3.60;;;12.10;99.90;;;;;;5078929;28;20215;-68
2023/05/27 04:25:55;;;;;;;10.50;3.60;;;11.90;99.90;;;;;;5083348;28;20590;-69
2023/05/27 04:28:49;;;;;;;11.45;3.53;;;12.00;99.90;;;;;;5079574;28;20221;-71
2023/05/27 04:31:40;;;;;;;11.95;3.55;;;12.30;99.90;;;;;;5078004;28;20346;-68
2023/05/27 04:34:36;;;;;;;14.18;3.40;;;12.50;99.90;;;;;;5081954;28;20227;-71
2023/05/27 04:37:27;;;;;;;13.68;3.65;;;12.70;99.90;;;;;;5080489;28;20223;-72
2023/05/27 04:40:17;;;;;;;11.25;3.80;;;12.70;99.90;;;;;;5094732;28;20231;-71
2023/05/27 04:43:29;;;;;;;9.82;3.28;;;12.80;99.90;;;;;;5083192;28;20364;-69
2023/05/27 04:46:18;;;;;;;11.95;3.42;;;12.70;99.90;;;;;;5078264;28;21397;-71
2023/05/27 04:49:09;;;;;;;13.23;4.00;;;12.60;99.90;;;;;;5083503;28;20216;-72
2023/05/27 04:51:59;;;;;;;13.30;3.22;;;12.50;99.90;;;;;;5091368;28;21080;-73
2023/05/27 04:54:48;;;;;;;14.73;3.25;;;12.70;99.90;;;;;;5078995;28;20296;-71
2023/05/27 04:57:52;;;;;;;10.95;3.60;;;12.80;99.90;;;;;;5081993;28;20215;-72
2023/05/27 05:00:49;;;;;;;10.25;3.15;;;13.10;99.80;;;;;;5078399;28;20216;-72
2023/05/27 05:03:50;;;;;;;11.88;3.53;;;13.10;99.90;;;;;;5080554;28;20314;-72
2023/05/27 05:06:42;;;;;;;11.95;3.05;;;12.80;99.90;;;;;;5070325;28;20241;-72
2023/05/27 05:09:32;;;;;;;7.80;2.88;;;12.90;99.90;;;;;;5080879;28;20273;-72
2023/05/27 05:12:32;;;;;;;8.38;3.38;;;13.10;99.70;;;;;;5072480;28;20324;-72
2023/05/27 05:15:21;;;;;;;8.13;3.45;;;13.20;99.80;;;;;;5076671;28;20238;-71
2023/05/27 05:18:12;;;;;;;8.23;2.83;;;13.10;99.90;;;;;;5079508;28;20293;-73
2023/05/27 05:21:01;;;;;;;7.88;2.88;;;13.30;99.30;;;;;;5077491;28;20216;-73
2023/05/27 05:23:57;;;;;;;9.60;3.10;;;13.70;99.40;;;;;;5077046;28;20235;-73
2023/05/27 05:26:46;;;;;;;8.07;2.78;;;13.80;99.10;;;;;;5080008;28;20227;-72
2023/05/27 05:29:36;;;;;;;9.65;2.60;;;13.60;98.50;;;;;;5082505;28;20243;-72
2023/05/27 05:32:25;;;;;;;11.18;3.22;;;14.00;98.30;;;;;;5081987;28;20679;-72
2023/05/27 05:35:15;;;;;;;7.93;2.70;;;14.10;97.90;;;;;;5086341;28;20368;-72
2023/05/27 05:38:09;;;;;;;12.48;2.60;;;14.00;97.90;;;;;;5077931;28;20312;-71
2023/05/27 05:41:01;;;;;;;7.82;2.83;;;15.10;96.90;;;;;;5079297;28;20270;-73
2023/05/27 05:43:51;;;;;;;9.85;2.70;;;15.50;96.00;;;;;;5076731;28;20230;-73
2023/05/27 05:46:40;;;;;;;7.32;2.47;;;15.30;96.10;;;;;;5082698;28;20283;-74
2023/05/27 05:49:30;;;;;;;10.65;3.13;;;14.80;95.80;;;;;;5085021;28;20232;-73
2023/05/27 05:52:19;;;;;;;8.45;3.58;;;14.60;96.00;;;;;;5083584;28;20717;-73
2023/05/27 05:55:09;;;;;;;7.22;2.55;;;14.60;96.20;;;;;;5082372;28;20591;-71
2023/05/27 05:58:00;;;;;;;7.13;2.20;;;14.80;96.20;;;;;;5077260;28;20306;-70
2023/05/27 06:00:50;;;;;;;8.52;2.50;;;14.70;95.80;;;;;;5082052;28;20591;-70
2023/05/27 06:03:52;;;;;;;7.38;2.45;;;15.10;94.80;;;;;;5077754;28;20226;-73
2023/05/27 06:06:51;;;;;;;8.00;2.53;;;15.60;94.20;;;;;;5077781;28;20263;-75
2023/05/27 06:09:59;;;;;;;8.73;2.85;;;14.80;94.90;;;;;;5078742;28;20215;-71
2023/05/27 06:12:57;;;;;;;5.88;2.47;;;14.70;95.60;;;;;;5081164;28;20219;-74
2023/05/27 06:15:47;;;;;;;6.72;2.20;;;14.40;95.20;;;;;;5082982;28;20303;-72
2023/05/27 06:18:37;;;;;;;5.75;2.40;;;14.70;95.40;;;;;;5079102;28;20220;-72
2023/05/27 06:21:26;;;;;;;6.90;2.20;;;14.80;94.60;;;;;;5078061;28;20219;-71
2023/05/27 06:24:45;;;;;;;8.30;2.30;;;15.10;94.70;;;;;;5075326;28;20224;-72
2023/05/27 06:27:40;;;;;;;9.18;2.55;;;15.20;94.30;;;;;;5110669;27;20250;-71
2023/05/27 06:30:31;;;;;;;8.60;2.15;;;15.20;94.10;;;;;;5077026;28;20292;-73
2023/05/27 06:33:23;;;;;;;7.15;2.17;;;15.10;94.00;;;;;;5082169;28;20841;-73
2023/05/27 06:36:12;;;;;;;7.50;2.45;;;15.30;93.90;;;;;;5094571;28;20224;-71
2023/05/27 06:39:03;;;;;;;5.80;2.05;;;15.30;93.30;;;;;;5080388;28;20234;-71
2023/05/27 06:41:55;;;;;;;6.68;2.22;;;15.30;93.20;;;;;;5076558;28;20610;-69
2023/05/27 06:45:04;;;;;;;8.43;2.55;;;15.50;93.00;;;;;;5077079;28;20270;-72
2023/05/27 06:47:54;;;;;;;5.03;2.33;;;15.70;92.50;;;;;;5081490;28;20238;-68
2023/05/27 06:50:45;;;;;;;9.60;2.30;;;15.70;91.90;;;;;;5082005;28;20227;-71
2023/05/27 06:53:35;;;;;;;11.48;2.92;;;15.40;92.10;;;;;;5080701;28;20227;-72
2023/05/27 06:56:29;;;;;;;10.00;2.30;;;15.40;92.40;;;;;;5077615;28;20219;-70
2023/05/27 06:59:44;;;;;;;5.75;2.40;;;15.90;92.80;;;;;;5080798;28;20226;-70
2023/05/27 07:02:33;;;;;;;4.93;2.22;;;16.00;91.30;;;;;;5076062;28;20234;-70
2023/05/27 07:05:22;;;;;;;5.18;2.13;;;16.20;91.20;;;;;;5077435;28;20216;-70
2023/05/27 07:08:13;;;;;;;6.47;2.42;;;16.50;90.30;;;;;;5074057;28;20215;-69
2023/05/27 07:11:03;;;;;;;5.63;1.92;;;16.70;89.00;;;;;;5066171;28;20230;-71
2023/05/27 07:13:52;;;;;;;5.65;2.00;;;16.70;90.30;;;;;;5076300;28;20222;-67
2023/05/27 07:16:47;;;;;;;8.02;2.00;;;17.00;87.70;;;;;;5073024;28;20268;-70
2023/05/27 07:19:36;;;;;;;6.03;2.42;;;17.30;87.40;;;;;;5073742;28;20299;-68
2023/05/27 07:22:29;;;;;;;5.57;2.42;;;17.50;85.70;;;;;;5073641;28;20228;-68
2023/05/27 07:25:20;;;;;;;6.20;2.25;;;17.40;85.30;;;;;;5076801;28;20308;-68
2023/05/27 07:28:09;;;;;;;5.85;2.30;;;18.00;83.70;;;;;;5077299;28;20231;-71
2023/05/27 07:31:04;;;;;;;4.18;2.03;;;17.80;83.90;;;;;;5077431;28;20235;-70
2023/05/27 07:34:01;;;;;;;4.47;2.00;;;18.10;81.90;;;;;;5079465;28;20947;-67
2023/05/27 07:36:51;;;;;;;9.27;2.00;;;18.40;80.00;;;;;;5078653;28;20292;-71
2023/05/27 07:39:40;;;;;;;3.67;1.80;;;18.70;80.20;;;;;;5082123;28;20682;-71
2023/05/27 07:42:31;;;;;;;4.95;1.70;;;19.20;77.60;;;;;;5077314;28;20396;-70
2023/05/27 07:45:22;;;;;;;8.52;2.25;;;19.10;74.70;;;;;;5090723;28;20220;-71
2023/05/27 07:48:11;;;;;;;4.15;2.15;;;20.00;73.20;;;;;;5086261;28;20355;-71
2023/05/27 07:51:00;;;;;;;3.83;1.52;;;20.00;73.90;;;;;;5080653;28;20296;-69
2023/05/27 07:53:50;;;;;;;6.47;2.13;;;19.90;70.90;;;;;;5077914;28;20215;-72
2023/05/27 07:56:40;;;;;;;7.68;1.77;;;20.40;69.50;;;;;;5075816;28;20231;-71
2023/05/27 07:59:31;;;;;;;6.80;1.73;;;21.10;70.80;;;;;;5079990;28;20322;-72
2023/05/27 08:02:21;;;;;;;5.15;1.60;;;20.60;69.00;;;;;;5080096;28;20384;-71
2023/05/27 08:05:11;;;;;;;4.50;1.48;;;19.80;69.20;;;;;;5079651;28;20726;-70
2023/05/27 08:08:20;;;;;;;4.32;2.08;;;20.00;68.30;;;;;;5085888;28;20223;-71
2023/05/27 08:11:28;;;;;;;5.15;1.90;;;20.70;68.60;;;;;;5082677;28;20235;-70
2023/05/27 08:14:40;;;;;;;3.92;1.60;;;21.40;68.20;;;;;;5063443;28;20639;-69
2023/05/27 08:17:52;;;;;;;11.27;1.90;;;21.70;66.20;;;;;;5059498;28;20302;-71
2023/05/27 08:20:50;;;;;;;6.28;1.63;;;21.90;67.20;;;;;;5077111;28;20777;-72
2023/05/27 08:24:24;;;;;;;8.07;1.90;;;22.00;65.00;;;;;;5055418;28;20890;-72
2023/05/27 08:27:47;;;;;;;6.07;1.95;;;21.90;61.20;;;;;;5071755;28;20280;-72
2023/05/27 08:30:44;;;;;;;4.10;1.70;;;22.00;63.30;;;;;;5073483;28;20224;-71
2023/05/27 08:33:42;;;;;;;3.95;1.50;;;22.30;61.00;;;;;;5080024;28;20219;-71
2023/05/27 08:36:31;;;;;;;10.95;2.08;;;22.10;63.20;;;;;;5072456;28;20297;-71
2023/05/27 08:39:21;;;;;;;3.70;1.90;;;22.20;60.10;;;;;;5080907;28;20246;-72
2023/05/27 08:42:22;;;;;;;4.18;1.50;;;22.30;62.70;;;;;;5077728;28;20223;-71
2023/05/27 08:45:12;;;;;;;4.93;1.70;;;23.10;61.10;;;;;;5078257;28;20222;-72
2023/05/27 08:48:03;;;;;;;3.30;1.58;;;23.30;58.50;;;;;;5081198;28;20875;-70
2023/05/27 08:50:57;;;;;;;7.93;1.50;;;22.50;58.40;;;;;;5077384;28;20223;-73
2023/05/27 08:53:46;;;;;;;4.18;1.63;;;21.80;58.60;;;;;;5090828;22;20211;-73
2023/05/27 08:56:37;;;;;;;4.05;1.38;;;22.20;59.40;;;;;;5059944;28;20230;-72
2023/05/27 08:59:27;;;;;;;2.10;1.55;;;23.10;58.60;;;;;;5077620;28;20710;-72
2023/05/27 09:02:18;;;;;;;2.80;1.42;;;23.10;57.10;;;;;;5055249;28;20208;-73
2023/05/27 09:05:12;;;;;;;5.72;1.75;;;23.80;58.10;;;;;;5058019;28;20244;-71
2023/05/27 09:08:01;;;;;;;5.65;1.63;;;24.60;58.90;;;;;;5052705;28;20223;-72
2023/05/27 09:10:50;;;;;;;2.22;1.40;;;23.60;55.20;;;;;;5064321;28;20232;-72
2023/05/27 09:13:43;;;;;;;4.93;1.50;;;22.40;55.20;;;;;;5063070;28;20981;-72
2023/05/27 09:16:32;;;;;;;1.98;1.48;;;23.30;55.40;;;;;;5069062;28;20599;-72
2023/05/27 09:19:22;;;;;;;5.47;1.67;;;22.30;54.10;;;;;;5048574;28;20219;-72
2023/05/27 09:22:20;;;;;;;3.97;1.40;;;21.60;55.20;;;;;;5049627;28;20225;-73
2023/05/27 09:25:15;;;;;;;6.68;1.40;;;21.80;54.00;;;;;;5062108;28;20772;-72
2023/05/27 09:28:07;;;;;;;2.20;1.33;;;23.40;55.00;;;;;;5067013;28;20695;-74
2023/05/27 09:31:05;;;;;;;3.75;1.52;;;24.20;54.00;;;;;;5057398;28;20239;-72
2023/05/27 09:33:54;;;;;;;2.97;1.60;;;24.70;52.20;;;;;;5051492;28;20310;-73
2023/05/27 09:36:45;;;;;;;3.05;1.45;;;24.90;49.80;;;;;;5040033;28;20329;-73
2023/05/27 09:39:35;;;;;;;6.13;1.35;;;25.10;49.40;;;;;;5052714;28;20224;-73
2023/05/27 09:42:25;;;;;;;3.67;1.30;;;26.40;49.30;;;;;;5046759;28;20220;-74
2023/05/27 09:45:15;;;;;;;2.70;1.42;;;26.20;46.80;;;;;;5058892;28;20572;-72
2023/05/27 09:48:04;;;;;;;3.30;1.50;;;26.20;48.90;;;;;;5078892;28;20878;-72
2023/05/27 09:50:55;;;;;;;4.25;1.55;;;27.30;47.40;;;;;;5070262;28;20307;-72
2023/05/27 09:53:47;;;;;;;4.10;1.35;;;27.50;46.30;;;;;;5050913;28;21034;-72
2023/05/27 09:56:37;;;;;;;1.73;1.23;;;29.10;44.90;;;;;;5039102;28;20400;-73
2023/05/27 09:59:27;;;;;;;3.58;1.40;;;29.50;43.50;;;;;;5055224;28;20327;-72
2023/05/27 10:02:25;;;;;;;3.40;1.48;;;30.40;43.20;;;;;;5041639;28;20701;-73
2023/05/27 10:05:16;;;;;;;2.85;1.30;;;31.10;40.40;;;;;;5076361;28;20222;-74
2023/05/27 10:08:05;;;;;;;4.75;1.70;;;31.30;41.30;;;;;;5044907;28;20263;-73
2023/05/27 10:11:12;;;;;;;2.83;1.50;;;30.50;37.00;;;;;;5056125;28;20233;-70
2023/05/27 10:14:04;;;;;;;2.92;1.60;;;31.50;40.20;;;;;;5051574;28;20830;-72
2023/05/27 10:16:55;;;;;;;5.78;2.00;;;30.30;36.20;;;;;;5082190;28;20349;-71
2023/05/27 10:19:58;;;;;;;5.90;1.52;;;31.70;38.30;;;;;;5073550;28;20219;-72
2023/05/27 10:22:47;;;;;;;2.88;1.50;;;31.70;39.00;;;;;;5065592;28;20230;-72
2023/05/27 10:25:39;;;;;;;4.30;2.00;;;31.60;37.90;;;;;;5047331;28;20231;-72
2023/05/27 10:28:32;;;;;;;1.45;1.30;;;31.60;38.70;;;;;;5066717;28;20302;-75
2023/05/27 10:31:23;;;;;;;2.05;1.40;;;30.70;36.90;;;;;;5073413;28;20227;-73
2023/05/27 10:34:11;;;;;;;3.65;1.85;;;32.70;38.70;;;;;;5055763;28;20230;-73
2023/05/27 10:37:02;;;;;;;4.47;1.50;;;34.50;35.90;;;;;;5075403;28;20289;-73
2023/05/27 10:39:58;;;;;;;5.45;1.83;;;33.60;36.70;;;;;;5072465;28;20312;-73
2023/05/27 10:42:47;;;;;;;2.75;1.60;;;35.00;37.50;;;;;;5046672;28;20234;-72
2023/05/27 10:45:35;;;;;;;2.58;1.40;;;35.10;34.50;;;;;;5066977;28;20224;-72
2023/05/27 10:48:29;;;;;;;4.75;1.85;;;35.70;34.60;;;;;;5068287;28;20227;-73
2023/05/27 10:51:18;;;;;;;5.20;2.08;;;35.50;32.80;;;;;;5056025;28;20219;-72
2023/05/27 10:54:07;;;;;;;4.45;1.75;;;36.40;32.10;;;;;;5086098;28;20277;-72
2023/05/27 10:56:59;;;;;;;6.82;1.55;;;34.20;32.10;;;;;;5072170;28;20220;-73
2023/05/27 10:59:51;;;;;;;4.57;1.75;;;34.90;33.40;;;;;;5051100;28;20227;-73
2023/05/27 11:02:40;;;;;;;2.05;1.38;;;32.60;33.20;;;;;;5061675;28;20369;-73
2023/05/27 11:05:32;;;;;;;3.97;1.52;;;35.10;36.20;;;;;;5064758;28;20232;-73
2023/05/27 11:08:22;;;;;;;4.45;1.60;;;33.90;34.60;;;;;;5066561;28;20234;-73
2023/05/27 11:11:13;;;;;;;4.32;2.38;;;34.30;36.20;;;;;;5083073;28;20302;-73
2023/05/27 11:14:04;;;;;;;2.90;1.60;;;36.20;35.40;;;;;;5071781;28;20234;-72
2023/05/27 11:16:53;;;;;;;3.72;1.50;;;35.70;33.10;;;;;;5060165;28;20361;-73
2023/05/27 11:19:44;;;;;;;3.00;1.50;;;35.70;33.60;;;;;;5083727;28;20788;-72
2023/05/27 11:22:36;;;;;;;3.15;1.60;;;36.50;34.20;;;;;;5051401;28;20618;-73
2023/05/27 11:25:25;;;;;;;4.68;1.65;;;34.10;33.50;;;;;;5074705;28;20599;-73
2023/05/27 11:28:17;;;;;;;2.42;1.33;;;36.50;34.50;;;;;;5078945;28;20306;-72
2023/05/27 11:31:07;;;;;;;2.65;1.40;;;35.50;33.90;;;;;;5079119;28;20246;-73
2023/05/27 11:33:56;;;;;;;1.80;1.33;;;36.20;33.40;;;;;;5049731;28;20250;-72
2023/05/27 11:36:46;;;;;;;3.20;1.50;;;37.30;33.70;;;;;;5058934;28;20590;-72
2023/05/27 11:39:36;;;;;;;2.25;1.40;;;38.60;31.30;;;;;;5065068;28;20263;-74
2023/05/27 11:42:29;;;;;;;2.75;1.75;;;38.80;31.00;;;;;;5058912;28;20219;-73
2023/05/27 11:45:20;;;;;;;3.88;1.60;;;39.70;30.40;;;;;;5064368;28;20285;-73
2023/05/27 11:48:11;;;;;;;2.47;1.40;;;39.40;30.10;;;;;;5063976;28;20220;-73
2023/05/27 11:51:00;;;;;;;3.15;1.40;;;39.80;30.70;;;;;;5068911;28;20275;-73
2023/05/27 11:53:49;;;;;;;3.33;1.50;;;39.30;30.00;;;;;;5068843;28;20304;-72
2023/05/27 11:56:40;;;;;;;4.93;1.52;;;40.00;30.80;;;;;;5080589;28;20300;-72
2023/05/27 11:59:28;;;;;;;3.63;1.40;;;38.00;28.70;;;;;;5063022;28;20223;-72
2023/05/27 12:02:20;;;;;;;3.30;1.20;;;38.10;29.30;;;;;;5052443;28;20935;-72
2023/05/27 12:05:10;;;;;;;15.00;1.75;;;38.90;29.40;;;;;;5066791;28;20219;-73
2023/05/27 12:08:13;;;;;;;3.72;1.55;;;38.80;29.00;;;;;;5060819;28;20225;-73
2023/05/27 12:11:02;;;;;;;5.25;1.70;;;39.70;28.60;;;;;;5059763;28;20215;-73
2023/05/27 12:13:54;;;;;;;2.72;1.33;;;38.00;27.50;;;;;;5053006;28;20224;-73
2023/05/27 12:16:43;;;;;;;3.90;1.50;;;38.90;27.80;;;;;;5055556;28;21087;-73
2023/05/27 12:19:34;;;;;;;4.50;1.40;;;40.80;28.10;;;;;;5060764;28;20222;-73
2023/05/27 12:22:23;;;;;;;4.80;1.30;;;40.60;26.80;;;;;;5065638;28;20984;-73
2023/05/27 12:25:12;;;;;;;8.48;1.30;;;42.00;27.80;;;;;;5085980;28;20315;-72
2023/05/27 12:28:01;;;;;;;4.93;1.30;;;44.60;27.60;;;;;;5060525;28;20856;-73
2023/05/27 12:30:51;;;;;;;6.15;1.50;;;43.80;26.60;;;;;;5068885;28;20229;-73
2023/05/27 12:33:40;;;;;;;3.28;1.33;;;42.80;26.60;;;;;;5072849;28;20245;-75
2023/05/27 12:36:29;;;;;;;2.70;1.27;;;42.40;26.50;;;;;;5076286;28;20295;-76
2023/05/27 12:39:19;;;;;;;3.00;1.25;;;40.00;26.80;;;;;;5062358;28;20234;-73
2023/05/27 12:42:08;;;;;;;7.82;1.50;;;37.20;26.90;;;;;;5072398;28;21055;-72
2023/05/27 12:44:57;;;;;;;3.03;1.50;;;36.00;27.80;;;;;;5063620;28;20310;-70
2023/05/27 12:47:51;;;;;;;3.10;1.30;;;31.90;29.40;;;;;;5042005;28;20226;-73
2023/05/27 12:50:40;;;;;;;3.90;1.35;;;;;;;;;;5059696;28;20223;-72
2023/05/27 12:53:30;;;;;;;2.60;1.40;;;27.10;32.10;;;;;;5087792;28;20598;-72
2023/05/27 12:56:18;;;;;;;3.22;1.48;;;26.00;35.50;;;;;;5069389;28;20227;-73
2023/05/27 12:59:07;;;;;;;8.82;1.38;;;25.50;36.40;;;;;;5052256;28;20606;-72
2023/05/27 13:01:56;;;;;;;4.80;1.90;;;24.60;37.10;;;;;;5053552;28;20302;-73
2023/05/27 13:04:47;;;;;;;4.30;1.60;;;23.80;38.10;;;;;;5041130;28;20645;-71
2023/05/27 13:07:37;;;;;;;5.10;1.58;;;23.00;39.10;;;;;;5076783;28;20215;-72
2023/05/27 13:10:26;;;;;;;6.57;1.70;;;22.80;40.10;;;;;;5053072;28;20269;-73
2023/05/27 13:13:15;;;;;;;4.38;1.70;;;23.20;40.10;;;;;;5078744;28;20233;-73
2023/05/27 13:16:04;;;;;;;2.90;1.30;;;22.90;40.60;;;;;;5086616;28;20310;-73
2023/05/27 13:18:52;;;;;;;3.60;1.83;;;22.20;41.20;;;;;;5054120;28;20231;-72
2023/05/27 13:21:43;;;;;;;6.55;1.83;;;21.70;41.10;;;;;;5091381;28;20387;-73
2023/05/27 13:24:32;;;;;;;4.30;1.50;;;21.80;41.70;;;;;;5069362;28;20242;-72
2023/05/27 13:27:21;;;;;;;3.35;1.42;;;21.90;42.30;;;;;;5065354;28;20281;-71
2023/05/27 13:30:11;;;;;;;5.88;1.50;;;22.10;42.80;;;;;;5091163;28;20233;-72
2023/05/27 13:33:01;;;;;;;3.45;1.30;;;21.70;42.10;;;;;;5058987;28;20216;-73
2023/05/27 13:35:50;;;;;;;4.05;1.42;;;21.60;42.40;;;;;;5080614;28;20273;-73
2023/05/27 13:38:41;;;;;;;3.70;2.15;;;21.70;42.50;;;;;;5060223;28;20227;-73
2023/05/27 13:41:29;;;;;;;9.00;1.70;;;20.90;41.90;;;;;;5079266;28;20256;-71
2023/05/27 13:44:18;;;;;;;7.93;1.70;;;21.20;42.50;;;;;;5062301;28;20352;-72
2023/05/27 13:47:08;;;;;;;3.85;2.30;;;21.30;42.80;;;;;;5045353;28;20226;-72
2023/05/27 13:49:57;;;;;;;2.13;1.40;;;21.50;43.20;;;;;;5062983;28;20353;-71
2023/05/27 13:52:46;;;;;;;8.20;1.40;;;21.30;43.10;;;;;;5069851;28;20221;-72
2023/05/27 13:55:36;;;;;;;4.50;1.48;;;21.30;43.10;;;;;;5077186;28;20227;-72
2023/05/27 13:58:25;;;;;;;2.28;1.30;;;21.30;43.40;;;;;;5076086;28;20729;-72
2023/05/27 14:01:14;;;;;;;3.83;1.20;;;21.30;44.90;;;;;;5078600;28;20311;-73
2023/05/27 14:04:03;;;;;;;2.22;1.20;;;20.80;44.50;;;;;;5076288;28;20279;-73
2023/05/27 14:06:52;;;;;;;3.55;1.40;;;20.70;44.50;;;;;;5073726;28;20219;-70
2023/05/27 14:09:41;;;;;;;2.75;1.10;;;20.60;44.80;;;;;;5067277;28;20361;-73
2023/05/27 14:12:31;;;;;;;3.35;1.30;;;20.30;45.50;;;;;;5076187;28;20784;-71
2023/05/27 14:15:20;;;;;;;4.22;1.20;;;20.60;45.60;;;;;;5063199;28;20376;-72
2023/05/27 14:18:08;;;;;;;4.65;1.20;;;20.90;45.90;;;;;;5079038;28;20618;-73
2023/05/27 14:20:57;;;;;;;3.10;1.20;;;20.60;45.80;;;;;;5064983;28;20311;-73
2023/05/27 14:23:46;;;;;;;1.77;1.10;;;20.50;45.70;;;;;;5067723;28;20227;-72
2023/05/27 14:26:34;;;;;;;3.97;1.17;;;20.70;45.60;;;;;;5058927;28;20238;-72
2023/05/27 14:29:25;;;;;;;7.28;1.58;;;20.40;45.30;;;;;;5059323;28;20215;-72
2023/05/27 14:32:15;;;;;;;2.83;1.20;;;20.60;46.60;;;;;;5057967;28;20220;-70
2023/05/27 14:35:04;;;;;;;3.50;1.40;;;20.10;46.10;;;;;;5046836;28;20254;-71
2023/05/27 14:37:53;;;;;;;4.18;1.20;;;20.20;46.10;;;;;;5066863;28;20235;-72
2023/05/27 14:40:43;;;;;;;2.95;1.38;;;20.30;46.20;;;;;;5063135;28;20242;-72
2023/05/27 14:43:32;;;;;;;4.35;1.38;;;20.10;46.10;;;;;;5077897;28;20224;-72
2023/05/27 14:46:23;;;;;;;4.60;1.50;;;20.10;46.20;;;;;;5067537;28;20833;-72
2023/05/27 14:49:12;;;;;;;4.85;1.75;;;20.20;46.70;;;;;;5051493;28;21126;-73